sensor_id;sensor_type;location;lat;lon;timestamp;pressure;altitude;pressure_sealevel;temperature;humidity
56176;BME280;63065;51.082;17.016;2022-11-20T00:00:09;100011.21;;;-3.20;47.55
56176;BME280;63065;51.082;17.016;2022-11-20T00:02:33;100008.94;;;-3.23;46.75
56176;BME280;63065;51.082;17.016;2022-11-20T00:04:59;100007.75;;;-3.27;46.58
56176;BME280;63065;51.082;17.016;2022-11-20T00:07:24;100003.86;;;-3.27;46.30
56176;BME280;63065;51.082;17.016;2022-11-20T00:09:49;99997.56;;;-3.21;47.00
56176;BME280;63065;51.082;17.016;2022-11-20T00:12:15;100000.25;;;-3.48;46.51
56176;BME280;63065;51.082;17.016;2022-11-20T00:14:40;99997.45;;;-3.36;46.50
56176;BME280;63065;51.082;17.016;2022-11-20T00:17:06;99992.62;;;-2.61;45.75
56176;BME280;63065;51.082;17.016;2022-11-20T00:19:32;99994.45;;;-2.92;46.62
56176;BME280;63065;51.082;17.016;2022-11-20T00:21:57;99997.80;;;-2.50;47.29
56176;BME280;63065;51.082;17.016;2022-11-20T00:24:23;100002.84;;;-2.13;47.51
56176;BME280;63065;51.082;17.016;2022-11-20T00:26:48;100004.46;;;-1.79;46.28
56176;BME280;63065;51.082;17.016;2022-11-20T00:29:14;100010.93;;;-2.20;46.36
56176;BME280;63065;51.082;17.016;2022-11-20T00:31:39;100007.23;;;-2.10;45.65
56176;BME280;63065;51.082;17.016;2022-11-20T00:34:04;100006.26;;;-2.34;45.65
56176;BME280;63065;51.082;17.016;2022-11-20T00:36:33;100007.08;;;-2.83;45.48
56176;BME280;63065;51.082;17.016;2022-11-20T00:38:57;100005.30;;;-2.88;45.54
56176;BME280;63065;51.082;17.016;2022-11-20T00:41:22;100009.02;;;-3.24;46.17
56176;BME280;63065;51.082;17.016;2022-11-20T00:43:47;100010.49;;;-3.16;46.35
56176;BME280;63065;51.082;17.016;2022-11-20T00:46:14;100010.01;;;-3.20;46.34
56176;BME280;63065;51.082;17.016;2022-11-20T00:48:38;100009.28;;;-3.03;46.00
56176;BME280;63065;51.082;17.016;2022-11-20T00:51:04;100010.94;;;-2.93;46.17
56176;BME280;63065;51.082;17.016;2022-11-20T00:53:29;100013.45;;;-2.70;45.86
56176;BME280;63065;51.082;17.016;2022-11-20T00:55:57;100017.48;;;-3.14;45.95
56176;BME280;63065;51.082;17.016;2022-11-20T00:58:21;100019.19;;;-3.46;46.38
56176;BME280;63065;51.082;17.016;2022-11-20T01:00:46;100022.47;;;-3.25;46.84
56176;BME280;63065;51.082;17.016;2022-11-20T01:03:12;100024.45;;;-3.28;46.32
56176;BME280;63065;51.082;17.016;2022-11-20T01:05:37;100022.46;;;-3.69;47.26
56176;BME280;63065;51.082;17.016;2022-11-20T01:08:03;100022.44;;;-3.44;46.72
56176;BME280;63065;51.082;17.016;2022-11-20T01:10:28;100023.19;;;-3.27;46.64
56176;BME280;63065;51.082;17.016;2022-11-20T01:12:53;100019.50;;;-2.80;47.31
56176;BME280;63065;51.082;17.016;2022-11-20T01:15:18;100014.81;;;-2.70;46.18
56176;BME280;63065;51.082;17.016;2022-11-20T01:17:44;100019.12;;;-3.06;45.79
56176;BME280;63065;51.082;17.016;2022-11-20T01:20:10;100020.38;;;-3.37;46.16
56176;BME280;63065;51.082;17.016;2022-11-20T01:22:35;100021.61;;;-3.16;46.33
56176;BME280;63065;51.082;17.016;2022-11-20T01:25:00;100018.97;;;-3.09;46.43
56176;BME280;63065;51.082;17.016;2022-11-20T01:27:26;100019.59;;;-3.45;46.33
56176;BME280;63065;51.082;17.016;2022-11-20T01:29:52;100018.63;;;-3.91;47.13
56176;BME280;63065;51.082;17.016;2022-11-20T01:32:17;100015.50;;;-3.31;46.29
56176;BME280;63065;51.082;17.016;2022-11-20T01:34:43;100016.31;;;-3.30;46.44
56176;BME280;63065;51.082;17.016;2022-11-20T01:37:09;100016.04;;;-3.36;46.42
56176;BME280;63065;51.082;17.016;2022-11-20T01:39:34;100012.36;;;-3.21;46.86
56176;BME280;63065;51.082;17.016;2022-11-20T01:41:59;100012.03;;;-2.91;45.99
56176;BME280;63065;51.082;17.016;2022-11-20T01:46:57;100015.95;;;-2.66;45.98
56176;BME280;63065;51.082;17.016;2022-11-20T01:49:18;100016.60;;;-2.53;46.56
56176;BME280;63065;51.082;17.016;2022-11-20T01:51:43;100015.60;;;-2.68;46.12
56176;BME280;63065;51.082;17.016;2022-11-20T01:54:08;100014.47;;;-2.26;47.50
56176;BME280;63065;51.082;17.016;2022-11-20T01:56:34;100008.53;;;-2.44;45.34
56176;BME280;63065;51.082;17.016;2022-11-20T01:58:59;100010.64;;;-2.58;45.64
56176;BME280;63065;51.082;17.016;2022-11-20T02:01:21;100010.51;;;-2.74;45.69
56176;BME280;63065;51.082;17.016;2022-11-20T02:03:48;100008.93;;;-2.78;45.24
56176;BME280;63065;51.082;17.016;2022-11-20T02:06:16;100001.70;;;-3.02;45.35
56176;BME280;63065;51.082;17.016;2022-11-20T02:08:38;99998.10;;;-2.63;46.49
56176;BME280;63065;51.082;17.016;2022-11-20T02:11:03;99993.35;;;-2.91;45.87
56176;BME280;63065;51.082;17.016;2022-11-20T02:13:29;99996.86;;;-2.76;46.35
56176;BME280;63065;51.082;17.016;2022-11-20T02:15:54;99998.93;;;-2.77;45.51
56176;BME280;63065;51.082;17.016;2022-11-20T02:18:20;99998.71;;;-2.59;46.70
56176;BME280;63065;51.082;17.016;2022-11-20T02:20:47;99999.11;;;-2.55;46.05
56176;BME280;63065;51.082;17.016;2022-11-20T02:23:12;99999.61;;;-3.21;45.18
56176;BME280;63065;51.082;17.016;2022-11-20T02:25:37;100004.56;;;-3.69;45.87
56176;BME280;63065;51.082;17.016;2022-11-20T02:28:02;100004.56;;;-3.29;46.77
56176;BME280;63065;51.082;17.016;2022-11-20T02:30:28;100001.43;;;-3.52;45.94
56176;BME280;63065;51.082;17.016;2022-11-20T02:32:53;99998.69;;;-3.56;46.38
56176;BME280;63065;51.082;17.016;2022-11-20T02:37:48;100000.22;;;-3.05;46.38
56176;BME280;63065;51.082;17.016;2022-11-20T02:40:11;100003.46;;;-3.34;46.96
56176;BME280;63065;51.082;17.016;2022-11-20T02:42:36;100003.71;;;-3.22;46.31
56176;BME280;63065;51.082;17.016;2022-11-20T02:45:01;100010.57;;;-3.38;45.49
56176;BME280;63065;51.082;17.016;2022-11-20T02:47:26;100008.47;;;-3.14;45.99
56176;BME280;63065;51.082;17.016;2022-11-20T02:49:52;100007.69;;;-3.53;45.71
56176;BME280;63065;51.082;17.016;2022-11-20T02:52:17;100007.51;;;-3.35;45.96
56176;BME280;63065;51.082;17.016;2022-11-20T02:54:42;100008.77;;;-2.97;46.93
56176;BME280;63065;51.082;17.016;2022-11-20T02:57:07;100000.76;;;-2.90;46.91
56176;BME280;63065;51.082;17.016;2022-11-20T02:59:33;99999.11;;;-3.11;45.61
56176;BME280;63065;51.082;17.016;2022-11-20T03:01:58;99996.61;;;-3.01;45.73
56176;BME280;63065;51.082;17.016;2022-11-20T03:04:23;99994.81;;;-2.90;45.29
56176;BME280;63065;51.082;17.016;2022-11-20T03:06:48;99997.31;;;-3.49;45.89
56176;BME280;63065;51.082;17.016;2022-11-20T03:09:14;100000.22;;;-3.65;46.02
56176;BME280;63065;51.082;17.016;2022-11-20T03:11:40;100001.39;;;-3.75;46.84
56176;BME280;63065;51.082;17.016;2022-11-20T03:14:05;100004.62;;;-3.41;46.82
56176;BME280;63065;51.082;17.016;2022-11-20T03:16:32;100001.37;;;-3.47;46.29
56176;BME280;63065;51.082;17.016;2022-11-20T03:18:56;99996.86;;;-4.38;46.64
56176;BME280;63065;51.082;17.016;2022-11-20T03:21:21;99994.97;;;-3.88;46.66
56176;BME280;63065;51.082;17.016;2022-11-20T03:23:47;99993.25;;;-3.62;46.34
56176;BME280;63065;51.082;17.016;2022-11-20T03:26:15;99992.71;;;-3.76;46.29
56176;BME280;63065;51.082;17.016;2022-11-20T03:28:38;99993.26;;;-3.20;46.04
56176;BME280;63065;51.082;17.016;2022-11-20T03:31:08;99995.39;;;-3.69;46.02
56176;BME280;63065;51.082;17.016;2022-11-20T03:33:28;99994.24;;;-3.77;46.22
56176;BME280;63065;51.082;17.016;2022-11-20T03:35:54;99991.38;;;-3.98;46.48
56176;BME280;63065;51.082;17.016;2022-11-20T03:38:19;99990.86;;;-3.82;46.69
56176;BME280;63065;51.082;17.016;2022-11-20T03:40:45;99990.63;;;-3.81;46.37
56176;BME280;63065;51.082;17.016;2022-11-20T03:43:11;99993.79;;;-3.74;46.23
56176;BME280;63065;51.082;17.016;2022-11-20T03:45:36;99996.20;;;-3.18;45.79
56176;BME280;63065;51.082;17.016;2022-11-20T03:48:01;99993.26;;;-3.50;46.14
56176;BME280;63065;51.082;17.016;2022-11-20T03:50:27;99995.04;;;-4.03;46.40
56176;BME280;63065;51.082;17.016;2022-11-20T03:52:52;99997.37;;;-4.55;46.95
56176;BME280;63065;51.082;17.016;2022-11-20T03:55:17;99996.68;;;-4.55;46.97
56176;BME280;63065;51.082;17.016;2022-11-20T03:57:42;99994.20;;;-3.84;47.02
56176;BME280;63065;51.082;17.016;2022-11-20T04:00:08;99995.03;;;-3.53;46.30
56176;BME280;63065;51.082;17.016;2022-11-20T04:02:32;99994.56;;;-3.69;47.12
56176;BME280;63065;51.082;17.016;2022-11-20T04:04:58;99998.56;;;-3.51;46.49
56176;BME280;63065;51.082;17.016;2022-11-20T04:07:24;100000.52;;;-3.33;46.48
56176;BME280;63065;51.082;17.016;2022-11-20T04:09:49;100001.20;;;-3.51;46.60
56176;BME280;63065;51.082;17.016;2022-11-20T04:12:14;100005.75;;;-3.57;47.17
56176;BME280;63065;51.082;17.016;2022-11-20T04:14:39;100010.63;;;-3.67;47.28
56176;BME280;63065;51.082;17.016;2022-11-20T04:17:05;100012.18;;;-3.18;47.36
56176;BME280;63065;51.082;17.016;2022-11-20T04:19:30;100013.51;;;-3.19;47.93
56176;BME280;63065;51.082;17.016;2022-11-20T04:21:55;100010.62;;;-3.54;45.60
56176;BME280;63065;51.082;17.016;2022-11-20T04:24:20;100013.78;;;-4.10;46.37
56176;BME280;63065;51.082;17.016;2022-11-20T04:26:46;100009.05;;;-4.34;47.14
56176;BME280;63065;51.082;17.016;2022-11-20T04:29:12;100003.84;;;-4.09;47.74
56176;BME280;63065;51.082;17.016;2022-11-20T04:31:38;100002.24;;;-4.00;46.54
56176;BME280;63065;51.082;17.016;2022-11-20T04:34:04;100003.08;;;-4.11;46.49
56176;BME280;63065;51.082;17.016;2022-11-20T04:36:28;99999.91;;;-3.76;47.24
56176;BME280;63065;51.082;17.016;2022-11-20T04:38:54;99998.05;;;-3.81;46.32
56176;BME280;63065;51.082;17.016;2022-11-20T04:41:20;99994.45;;;-3.57;45.53
56176;BME280;63065;51.082;17.016;2022-11-20T04:43:47;99994.05;;;-3.97;45.73
56176;BME280;63065;51.082;17.016;2022-11-20T04:46:09;99992.85;;;-3.62;45.37
56176;BME280;63065;51.082;17.016;2022-11-20T04:48:35;99990.65;;;-3.44;45.70
56176;BME280;63065;51.082;17.016;2022-11-20T04:51:03;99992.57;;;-3.32;46.13
56176;BME280;63065;51.082;17.016;2022-11-20T04:53:26;99992.12;;;-3.15;47.39
56176;BME280;63065;51.082;17.016;2022-11-20T04:55:51;99987.55;;;-3.62;45.64
56176;BME280;63065;51.082;17.016;2022-11-20T04:58:17;99984.39;;;-3.99;45.86
56176;BME280;63065;51.082;17.016;2022-11-20T05:00:42;99982.12;;;-3.98;46.34
56176;BME280;63065;51.082;17.016;2022-11-20T05:03:07;99980.93;;;-3.99;46.09
56176;BME280;63065;51.082;17.016;2022-11-20T05:05:34;99979.87;;;-3.82;45.63
56176;BME280;63065;51.082;17.016;2022-11-20T05:07:59;99979.22;;;-3.61;46.46
56176;BME280;63065;51.082;17.016;2022-11-20T05:10:25;99975.20;;;-3.58;46.49
56176;BME280;63065;51.082;17.016;2022-11-20T05:12:50;99969.20;;;-3.48;46.20
56176;BME280;63065;51.082;17.016;2022-11-20T05:15:16;99969.09;;;-3.47;45.66
56176;BME280;63065;51.082;17.016;2022-11-20T05:17:41;99970.66;;;-3.44;45.72
56176;BME280;63065;51.082;17.016;2022-11-20T05:20:07;99967.77;;;-3.88;45.96
56176;BME280;63065;51.082;17.016;2022-11-20T05:22:32;99963.36;;;-3.63;46.34
56176;BME280;63065;51.082;17.016;2022-11-20T05:24:58;99964.85;;;-3.98;45.91
56176;BME280;63065;51.082;17.016;2022-11-20T05:27:23;99966.29;;;-3.56;45.55
56176;BME280;63065;51.082;17.016;2022-11-20T05:29:48;99967.08;;;-4.10;45.72
56176;BME280;63065;51.082;17.016;2022-11-20T05:32:14;99972.01;;;-3.73;47.81
56176;BME280;63065;51.082;17.016;2022-11-20T05:34:39;99969.61;;;-2.88;47.14
56176;BME280;63065;51.082;17.016;2022-11-20T05:37:04;99971.94;;;-3.57;46.19
56176;BME280;63065;51.082;17.016;2022-11-20T05:39:30;99965.02;;;-3.22;46.49
56176;BME280;63065;51.082;17.016;2022-11-20T05:41:56;99960.78;;;-3.33;46.80
56176;BME280;63065;51.082;17.016;2022-11-20T05:44:21;99959.44;;;-3.97;46.20
56176;BME280;63065;51.082;17.016;2022-11-20T05:46:47;99956.86;;;-3.62;45.90
56176;BME280;63065;51.082;17.016;2022-11-20T05:49:12;99952.11;;;-4.27;46.40
56176;BME280;63065;51.082;17.016;2022-11-20T05:51:38;99954.22;;;-3.91;46.42
56176;BME280;63065;51.082;17.016;2022-11-20T05:54:03;99954.63;;;-3.61;48.44
56176;BME280;63065;51.082;17.016;2022-11-20T05:56:29;99950.60;;;-4.37;46.37
56176;BME280;63065;51.082;17.016;2022-11-20T05:58:56;99949.96;;;-4.68;47.00
56176;BME280;63065;51.082;17.016;2022-11-20T06:01:23;99949.56;;;-4.19;46.93
56176;BME280;63065;51.082;17.016;2022-11-20T06:03:47;99948.71;;;-4.23;46.20
56176;BME280;63065;51.082;17.016;2022-11-20T06:06:12;99949.39;;;-4.23;46.16
56176;BME280;63065;51.082;17.016;2022-11-20T06:08:38;99949.82;;;-3.95;46.70
56176;BME280;63065;51.082;17.016;2022-11-20T06:11:04;99949.21;;;-3.57;46.86
56176;BME280;63065;51.082;17.016;2022-11-20T06:13:29;99951.50;;;-3.55;48.45
56176;BME280;63065;51.082;17.016;2022-11-20T06:15:54;99950.80;;;-3.75;47.28
56176;BME280;63065;51.082;17.016;2022-11-20T06:18:21;99946.46;;;-3.78;46.75
56176;BME280;63065;51.082;17.016;2022-11-20T06:20:47;99945.36;;;-4.08;46.10
56176;BME280;63065;51.082;17.016;2022-11-20T06:23:13;99947.14;;;-4.28;46.27
56176;BME280;63065;51.082;17.016;2022-11-20T06:25:38;99943.86;;;-4.34;46.15
56176;BME280;63065;51.082;17.016;2022-11-20T06:28:03;99941.93;;;-4.59;46.70
56176;BME280;63065;51.082;17.016;2022-11-20T06:30:29;99938.55;;;-4.23;46.26
56176;BME280;63065;51.082;17.016;2022-11-20T06:32:54;99940.09;;;-4.20;46.35
56176;BME280;63065;51.082;17.016;2022-11-20T06:35:20;99939.42;;;-4.11;45.78
56176;BME280;63065;51.082;17.016;2022-11-20T06:37:46;99935.51;;;-3.79;45.95
56176;BME280;63065;51.082;17.016;2022-11-20T06:40:11;99930.11;;;-4.30;45.87
56176;BME280;63065;51.082;17.016;2022-11-20T06:42:36;99928.29;;;-4.67;46.70
56176;BME280;63065;51.082;17.016;2022-11-20T06:45:01;99928.26;;;-4.19;47.01
56176;BME280;63065;51.082;17.016;2022-11-20T06:47:27;99929.16;;;-4.21;46.16
56176;BME280;63065;51.082;17.016;2022-11-20T06:49:52;99932.41;;;-4.55;47.08
56176;BME280;63065;51.082;17.016;2022-11-20T06:52:18;99935.54;;;-4.31;46.71
56176;BME280;63065;51.082;17.016;2022-11-20T06:54:44;99936.90;;;-3.90;46.72
56176;BME280;63065;51.082;17.016;2022-11-20T06:57:09;99939.90;;;-4.51;46.89
56176;BME280;63065;51.082;17.016;2022-11-20T06:59:35;99942.23;;;-4.16;48.08
56176;BME280;63065;51.082;17.016;2022-11-20T07:02:01;99945.85;;;-3.87;47.10
56176;BME280;63065;51.082;17.016;2022-11-20T07:04:26;99947.75;;;-4.16;46.71
56176;BME280;63065;51.082;17.016;2022-11-20T07:06:52;99946.19;;;-4.03;46.64
56176;BME280;63065;51.082;17.016;2022-11-20T07:09:17;99950.78;;;-3.73;46.67
56176;BME280;63065;51.082;17.016;2022-11-20T07:11:42;99949.49;;;-3.40;46.46
56176;BME280;63065;51.082;17.016;2022-11-20T07:14:07;99946.14;;;-3.12;46.19
56176;BME280;63065;51.082;17.016;2022-11-20T07:16:33;99941.85;;;-3.43;46.40
56176;BME280;63065;51.082;17.016;2022-11-20T07:18:58;99943.12;;;-2.91;47.32
56176;BME280;63065;51.082;17.016;2022-11-20T07:21:24;99944.96;;;-2.55;47.38
56176;BME280;63065;51.082;17.016;2022-11-20T07:23:50;99939.96;;;-2.63;47.48
56176;BME280;63065;51.082;17.016;2022-11-20T07:26:15;99936.32;;;-2.42;46.47
56176;BME280;63065;51.082;17.016;2022-11-20T07:28:44;99935.62;;;-2.31;46.53
56176;BME280;63065;51.082;17.016;2022-11-20T07:31:06;99933.70;;;-2.01;46.41
56176;BME280;63065;51.082;17.016;2022-11-20T07:33:32;99933.22;;;-2.39;46.19
56176;BME280;63065;51.082;17.016;2022-11-20T07:35:58;99934.02;;;-2.17;46.56
56176;BME280;63065;51.082;17.016;2022-11-20T07:38:22;99929.76;;;-2.22;46.10
56176;BME280;63065;51.082;17.016;2022-11-20T07:40:48;99929.48;;;-1.77;46.05
56176;BME280;63065;51.082;17.016;2022-11-20T07:43:13;99928.52;;;-2.32;46.16
56176;BME280;63065;51.082;17.016;2022-11-20T07:45:39;99927.02;;;-2.24;46.38
56176;BME280;63065;51.082;17.016;2022-11-20T07:48:05;99923.33;;;-2.11;45.86
56176;BME280;63065;51.082;17.016;2022-11-20T07:50:29;99923.20;;;-2.03;46.72
56176;BME280;63065;51.082;17.016;2022-11-20T07:53:01;99922.38;;;-1.98;46.28
56176;BME280;63065;51.082;17.016;2022-11-20T07:55:21;99925.52;;;-1.93;45.16
56176;BME280;63065;51.082;17.016;2022-11-20T07:57:54;99924.79;;;-1.50;44.45
56176;BME280;63065;51.082;17.016;2022-11-20T08:00:13;99922.19;;;-1.82;46.09
56176;BME280;63065;51.082;17.016;2022-11-20T08:02:37;99914.71;;;-1.65;44.20
56176;BME280;63065;51.082;17.016;2022-11-20T08:05:03;99911.74;;;-2.08;45.32
56176;BME280;63065;51.082;17.016;2022-11-20T08:07:28;99913.86;;;-1.62;45.97
56176;BME280;63065;51.082;17.016;2022-11-20T08:09:54;99916.32;;;-1.64;44.95
56176;BME280;63065;51.082;17.016;2022-11-20T08:12:20;99917.03;;;-1.62;45.97
56176;BME280;63065;51.082;17.016;2022-11-20T08:14:45;99916.96;;;-1.75;44.54
56176;BME280;63065;51.082;17.016;2022-11-20T08:17:10;99916.13;;;-1.28;44.66
56176;BME280;63065;51.082;17.016;2022-11-20T08:19:36;99914.39;;;-1.43;45.61
56176;BME280;63065;51.082;17.016;2022-11-20T08:22:01;99908.68;;;-1.05;44.84
56176;BME280;63065;51.082;17.016;2022-11-20T08:24:27;99906.44;;;-1.40;44.98
56176;BME280;63065;51.082;17.016;2022-11-20T08:26:52;99902.40;;;-0.85;44.16
56176;BME280;63065;51.082;17.016;2022-11-20T08:29:18;99902.31;;;-1.11;44.01
56176;BME280;63065;51.082;17.016;2022-11-20T08:31:43;99897.14;;;-0.79;43.98
56176;BME280;63065;51.082;17.016;2022-11-20T08:34:08;99895.64;;;-0.76;44.16
56176;BME280;63065;51.082;17.016;2022-11-20T08:36:33;99891.20;;;-1.14;44.05
56176;BME280;63065;51.082;17.016;2022-11-20T08:39:03;99891.30;;;-1.12;43.77
56176;BME280;63065;51.082;17.016;2022-11-20T08:41:24;99890.25;;;-0.59;43.44
56176;BME280;63065;51.082;17.016;2022-11-20T08:43:50;99887.68;;;-0.57;43.77
56176;BME280;63065;51.082;17.016;2022-11-20T08:46:15;99887.54;;;-0.43;43.82
56176;BME280;63065;51.082;17.016;2022-11-20T08:48:40;99887.39;;;-0.58;44.24
56176;BME280;63065;51.082;17.016;2022-11-20T08:51:06;99880.01;;;-0.48;44.19
56176;BME280;63065;51.082;17.016;2022-11-20T08:53:32;99886.81;;;-0.47;43.78
56176;BME280;63065;51.082;17.016;2022-11-20T08:55:57;99887.58;;;-0.40;43.35
56176;BME280;63065;51.082;17.016;2022-11-20T08:58:23;99889.73;;;-0.49;43.36
56176;BME280;63065;51.082;17.016;2022-11-20T09:00:49;99888.91;;;-0.37;43.33
56176;BME280;63065;51.082;17.016;2022-11-20T09:03:15;99884.49;;;-0.09;43.36
56176;BME280;63065;51.082;17.016;2022-11-20T09:05:39;99886.14;;;-0.20;42.72
56176;BME280;63065;51.082;17.016;2022-11-20T09:08:05;99881.96;;;-0.11;42.14
56176;BME280;63065;51.082;17.016;2022-11-20T09:10:30;99876.52;;;0.03;41.88
56176;BME280;63065;51.082;17.016;2022-11-20T09:12:56;99873.13;;;0.12;42.52
56176;BME280;63065;51.082;17.016;2022-11-20T09:15:22;99873.28;;;-0.15;42.06
56176;BME280;63065;51.082;17.016;2022-11-20T09:17:51;99879.89;;;0.04;42.71
56176;BME280;63065;51.082;17.016;2022-11-20T09:20:14;99880.27;;;-0.17;42.64
56176;BME280;63065;51.082;17.016;2022-11-20T09:22:39;99876.69;;;0.47;41.84
56176;BME280;63065;51.082;17.016;2022-11-20T09:25:05;99877.67;;;0.03;42.07
56176;BME280;63065;51.082;17.016;2022-11-20T09:27:29;99873.51;;;0.11;42.51
56176;BME280;63065;51.082;17.016;2022-11-20T09:29:56;99871.26;;;0.34;42.44
56176;BME280;63065;51.082;17.016;2022-11-20T09:32:21;99867.94;;;0.80;41.17
56176;BME280;63065;51.082;17.016;2022-11-20T09:34:46;99868.07;;;0.52;41.58
56176;BME280;63065;51.082;17.016;2022-11-20T09:37:12;99866.41;;;0.42;41.23
56176;BME280;63065;51.082;17.016;2022-11-20T09:39:38;99864.95;;;0.60;41.23
56176;BME280;63065;51.082;17.016;2022-11-20T09:44:40;99854.26;;;0.21;40.78
56176;BME280;63065;51.082;17.016;2022-11-20T09:47:00;99852.98;;;0.42;41.05
56176;BME280;63065;51.082;17.016;2022-11-20T09:49:28;99850.10;;;0.37;41.80
56176;BME280;63065;51.082;17.016;2022-11-20T09:51:51;99848.61;;;0.38;41.51
56176;BME280;63065;51.082;17.016;2022-11-20T09:54:16;99848.91;;;0.39;41.10
56176;BME280;63065;51.082;17.016;2022-11-20T09:56:38;99844.28;;;0.54;40.47
56176;BME280;63065;51.082;17.016;2022-11-20T09:59:05;99841.15;;;0.65;40.29
56176;BME280;63065;51.082;17.016;2022-11-20T10:01:31;99839.46;;;0.96;40.53
56176;BME280;63065;51.082;17.016;2022-11-20T10:03:57;99841.23;;;0.69;40.29
56176;BME280;63065;51.082;17.016;2022-11-20T10:06:23;99836.27;;;0.51;39.96
56176;BME280;63065;51.082;17.016;2022-11-20T10:08:50;99836.04;;;0.73;40.18
56176;BME280;63065;51.082;17.016;2022-11-20T10:11:16;99839.19;;;0.96;40.44
56176;BME280;63065;51.082;17.016;2022-11-20T10:13:45;99835.59;;;0.51;39.55
56176;BME280;63065;51.082;17.016;2022-11-20T10:16:13;99836.35;;;0.94;40.00
56176;BME280;63065;51.082;17.016;2022-11-20T10:18:37;99832.07;;;0.80;40.31
56176;BME280;63065;51.082;17.016;2022-11-20T10:20:58;99825.59;;;0.58;40.17
56176;BME280;63065;51.082;17.016;2022-11-20T10:23:29;99821.43;;;1.00;40.40
56176;BME280;63065;51.082;17.016;2022-11-20T10:25:48;99817.01;;;0.98;40.83
56176;BME280;63065;51.082;17.016;2022-11-20T10:28:16;99814.26;;;1.17;40.38
56176;BME280;63065;51.082;17.016;2022-11-20T10:30:37;99810.36;;;1.27;40.08
56176;BME280;63065;51.082;17.016;2022-11-20T10:33:05;99801.96;;;1.76;39.13
56176;BME280;63065;51.082;17.016;2022-11-20T10:35:28;99798.10;;;1.41;39.74
56176;BME280;63065;51.082;17.016;2022-11-20T10:37:55;99797.02;;;1.53;37.26
56176;BME280;63065;51.082;17.016;2022-11-20T10:40:22;99801.05;;;1.22;38.19
56176;BME280;63065;51.082;17.016;2022-11-20T10:42:43;99801.39;;;1.58;38.63
56176;BME280;63065;51.082;17.016;2022-11-20T10:45:15;99802.39;;;1.37;38.91
56176;BME280;63065;51.082;17.016;2022-11-20T10:47:36;99802.44;;;1.26;38.39
56176;BME280;63065;51.082;17.016;2022-11-20T10:50:02;99805.15;;;1.27;38.45
56176;BME280;63065;51.082;17.016;2022-11-20T10:52:28;99800.48;;;1.22;38.58
56176;BME280;63065;51.082;17.016;2022-11-20T10:54:54;99791.68;;;1.19;37.53
56176;BME280;63065;51.082;17.016;2022-11-20T10:57:23;99788.89;;;1.50;38.49
56176;BME280;63065;51.082;17.016;2022-11-20T10:59:48;99788.40;;;1.54;37.56
56176;BME280;63065;51.082;17.016;2022-11-20T11:04:36;99789.98;;;1.91;38.69
56176;BME280;63065;51.082;17.016;2022-11-20T11:06:58;99788.15;;;1.79;37.83
56176;BME280;63065;51.082;17.016;2022-11-20T11:09:27;99785.13;;;1.87;38.14
56176;BME280;63065;51.082;17.016;2022-11-20T11:11:45;99779.76;;;1.96;36.31
56176;BME280;63065;51.082;17.016;2022-11-20T11:14:13;99774.91;;;1.88;37.30
56176;BME280;63065;51.082;17.016;2022-11-20T11:19:04;99766.17;;;1.95;35.93
56176;BME280;63065;51.082;17.016;2022-11-20T11:21:28;99769.50;;;1.93;37.08
56176;BME280;63065;51.082;17.016;2022-11-20T11:23:58;99764.23;;;2.37;36.03
56176;BME280;63065;51.082;17.016;2022-11-20T11:26:21;99760.73;;;2.46;36.11
56176;BME280;63065;51.082;17.016;2022-11-20T11:28:52;99763.64;;;2.38;37.28
56176;BME280;63065;51.082;17.016;2022-11-20T11:31:09;99759.29;;;2.36;36.49
56176;BME280;63065;51.082;17.016;2022-11-20T11:33:34;99752.04;;;2.54;35.74
56176;BME280;63065;51.082;17.016;2022-11-20T11:36:02;99745.10;;;2.63;36.33
56176;BME280;63065;51.082;17.016;2022-11-20T11:38:30;99740.40;;;2.52;36.56
56176;BME280;63065;51.082;17.016;2022-11-20T11:40:54;99739.38;;;2.62;36.63
56176;BME280;63065;51.082;17.016;2022-11-20T11:43:19;99734.29;;;2.52;34.76
56176;BME280;63065;51.082;17.016;2022-11-20T11:45:50;99733.37;;;2.61;35.45
56176;BME280;63065;51.082;17.016;2022-11-20T11:48:08;99735.49;;;2.62;35.85
56176;BME280;63065;51.082;17.016;2022-11-20T11:50:33;99732.93;;;3.08;36.14
56176;BME280;63065;51.082;17.016;2022-11-20T11:53:08;99728.60;;;2.81;35.66
56176;BME280;63065;51.082;17.016;2022-11-20T11:55:30;99721.26;;;2.45;35.68
56176;BME280;63065;51.082;17.016;2022-11-20T11:57:54;99719.69;;;2.34;36.20
56176;BME280;63065;51.082;17.016;2022-11-20T12:00:17;99718.56;;;2.77;36.19
56176;BME280;63065;51.082;17.016;2022-11-20T12:02:52;99716.43;;;2.55;35.73
56176;BME280;63065;51.082;17.016;2022-11-20T12:05:16;99712.99;;;2.70;36.31
56176;BME280;63065;51.082;17.016;2022-11-20T12:07:39;99712.08;;;2.49;35.81
56176;BME280;63065;51.082;17.016;2022-11-20T12:09:58;99713.31;;;2.88;36.24
56176;BME280;63065;51.082;17.016;2022-11-20T12:12:29;99710.43;;;2.59;36.10
56176;BME280;63065;51.082;17.016;2022-11-20T12:14:49;99709.85;;;2.55;35.66
56176;BME280;63065;51.082;17.016;2022-11-20T12:17:14;99708.39;;;2.28;35.48
56176;BME280;63065;51.082;17.016;2022-11-20T12:19:41;99706.38;;;2.33;36.25
56176;BME280;63065;51.082;17.016;2022-11-20T12:22:13;99710.20;;;2.95;36.24
56176;BME280;63065;51.082;17.016;2022-11-20T12:24:39;99706.88;;;2.96;36.86
56176;BME280;63065;51.082;17.016;2022-11-20T12:27:05;99704.06;;;2.78;36.44
56176;BME280;63065;51.082;17.016;2022-11-20T12:29:32;99698.40;;;2.80;36.55
56176;BME280;63065;51.082;17.016;2022-11-20T12:31:59;99697.61;;;3.17;36.53
56176;BME280;63065;51.082;17.016;2022-11-20T12:34:22;99699.47;;;3.07;36.34
56176;BME280;63065;51.082;17.016;2022-11-20T12:36:40;99701.04;;;2.57;36.76
56176;BME280;63065;51.082;17.016;2022-11-20T12:41:43;99701.48;;;2.56;37.50
56176;BME280;63065;51.082;17.016;2022-11-20T12:44:01;99702.31;;;2.85;37.73
56176;BME280;63065;51.082;17.016;2022-11-20T12:46:29;99701.03;;;3.09;37.48
56176;BME280;63065;51.082;17.016;2022-11-20T12:48:57;99701.35;;;2.32;37.22
56176;BME280;63065;51.082;17.016;2022-11-20T12:51:23;99698.11;;;2.45;37.43
56176;BME280;63065;51.082;17.016;2022-11-20T12:53:41;99693.10;;;2.39;37.73